Time;durP1;ratioP1;P1;durP2;ratioP2;P2;SDS_P1;SDS_P2;PMS_P1;PMS_P2;Temp;Humidity;BMP_temperature;BMP_pressure;BME280_temperature;BME280_humidity;BME280_pressure;Samples;Min_cycle;Max_cycle;Signal;HPM_P1;HPM_P2
2023/05/23 00:00:13;;;;;;;7.68;5.05;;;;;;;17.25;45.66;100543.66;7400130;19;20011;-69
2023/05/23 00:02:41;;;;;;;5.55;4.63;;;;;;;17.21;45.83;100538.59;7399685;19;20073;-69
2023/05/23 00:05:14;;;;;;;6.07;5.15;;;;;;;17.15;46.14;100534.47;7399979;19;20035;-69
2023/05/23 00:07:42;;;;;;;9.30;5.20;;;;;;;17.09;46.24;100527.69;7398874;19;20360;-69
2023/05/23 00:10:12;;;;;;;7.55;5.05;;;;;;;17.05;46.51;100523.50;7399773;19;20032;-69
2023/05/23 00:12:41;;;;;;;7.22;5.38;;;;;;;17.02;46.52;100531.63;7399357;19;20022;-69
2023/05/23 00:15:11;;;;;;;8.25;5.18;;;;;;;17.00;46.96;100528.19;7399586;19;20011;-69
2023/05/23 00:17:39;;;;;;;7.25;4.70;;;;;;;16.98;46.52;100526.53;7399130;19;20509;-68
2023/05/23 00:20:10;;;;;;;5.07;4.40;;;;;;;16.95;46.73;100522.25;7399118;19;20372;-69
2023/05/23 00:22:42;;;;;;;8.30;4.75;;;;;;;16.93;47.08;100521.47;7398712;19;20015;-69
2023/05/23 00:25:12;;;;;;;6.00;5.38;;;;;;;16.91;47.07;100523.38;7398871;19;20018;-69
2023/05/23 00:27:40;;;;;;;5.35;4.85;;;;;;;16.88;46.84;100518.19;7398253;19;20014;-68
2023/05/23 00:30:10;;;;;;;11.35;5.10;;;;;;;16.85;47.09;100513.91;7398758;19;20082;-69
2023/05/23 00:32:39;;;;;;;6.03;5.22;;;;;;;16.83;47.02;100514.91;7398297;19;20018;-69
2023/05/23 00:35:08;;;;;;;6.25;4.95;;;;;;;16.76;47.19;100509.94;7398817;19;20028;-69
2023/05/23 00:37:37;;;;;;;6.10;4.43;;;;;;;16.74;47.14;100511.81;7398353;19;20424;-69
2023/05/23 00:40:10;;;;;;;7.30;4.80;;;;;;;16.72;47.03;100513.69;7398390;19;20035;-68
2023/05/23 00:42:38;;;;;;;7.05;4.72;;;;;;;16.70;47.30;100515.53;7398860;19;20024;-69
2023/05/23 00:45:08;;;;;;;7.40;5.40;;;;;;;16.69;47.34;100521.75;7398197;19;20494;-69
2023/05/23 00:47:37;;;;;;;7.90;5.15;;;;;;;16.69;47.43;100527.06;7397338;19;20022;-68
2023/05/23 00:50:06;;;;;;;5.95;5.20;;;;;;;16.69;47.52;100524.41;7396204;19;20011;-69
2023/05/23 00:52:34;;;;;;;7.95;5.20;;;;;;;16.68;47.36;100522.72;7398051;19;20042;-68
2023/05/23 00:55:03;;;;;;;6.18;4.60;;;;;;;16.66;47.39;100515.78;7395999;19;20014;-69
2023/05/23 00:57:39;;;;;;;7.07;5.60;;;;;;;16.66;47.42;100518.44;7397706;19;20027;-68
2023/05/23 01:00:10;;;;;;;9.32;5.72;;;;;;;16.63;47.36;100516.81;7398410;19;20078;-70
2023/05/23 01:02:43;;;;;;;8.35;5.10;;;;;;;16.63;47.76;100523.88;7397391;19;20010;-68
2023/05/23 01:05:13;;;;;;;9.43;5.57;;;;;;;16.61;47.75;100519.50;7398519;19;20033;-69
2023/05/23 01:07:41;;;;;;;7.63;6.53;;;;;;;16.59;47.52;100529.34;7396975;19;20007;-68
2023/05/23 01:10:12;;;;;;;6.88;5.65;;;;;;;16.59;47.60;100541.72;7397916;19;20019;-69
2023/05/23 01:12:52;;;;;;;7.07;5.63;;;;;;;16.53;49.03;100547.31;7398694;19;20019;-68
2023/05/23 01:15:25;;;;;;;8.55;5.60;;;;;;;16.39;48.28;100543.56;7398021;19;20015;-68
2023/05/23 01:18:01;;;;;;;7.22;5.38;;;;;;;16.26;48.69;100526.56;7397720;19;20074;-68
2023/05/23 01:20:33;;;;;;;6.30;5.70;;;;;;;16.16;48.82;100520.00;7397477;19;20014;-68
2023/05/23 01:23:23;;;;;;;9.32;6.13;;;;;;;16.09;48.80;100519.47;7397201;19;20100;-68
2023/05/23 01:26:11;;;;;;;9.48;6.15;;;;;;;16.07;49.18;100510.72;7397307;19;20035;-68
2023/05/23 01:28:47;;;;;;;8.77;5.50;;;;;;;16.06;49.04;100524.88;7396542;19;20014;-69
2023/05/23 01:31:18;;;;;;;7.75;5.53;;;;;;;16.07;49.27;100518.66;7400944;19;20010;-68
2023/05/23 01:33:52;;;;;;;6.30;5.63;;;;;;;16.05;49.33;100523.16;7399241;19;20508;-68
2023/05/23 01:36:21;;;;;;;6.97;5.82;;;;;;;16.03;49.18;100504.72;7398540;19;20041;-68
2023/05/23 01:38:49;;;;;;;9.25;5.55;;;;;;;16.05;49.32;100497.56;7396881;19;20027;-68
2023/05/23 01:41:18;;;;;;;8.68;6.15;;;;;;;16.06;49.59;100487.84;7396702;19;20035;-68
2023/05/23 01:43:49;;;;;;;8.52;6.25;;;;;;;16.06;49.68;100487.84;7395522;19;20031;-68
2023/05/23 01:46:18;;;;;;;6.20;5.25;;;;;;;16.05;49.89;100484.34;7397002;19;20015;-68
2023/05/23 01:48:47;;;;;;;6.78;5.43;;;;;;;16.04;49.75;100482.63;7394436;19;20376;-68
2023/05/23 01:51:16;;;;;;;6.15;5.40;;;;;;;16.04;49.75;100485.28;7396743;19;20014;-68
2023/05/23 01:53:45;;;;;;;7.13;5.25;;;;;;;16.04;50.09;100484.44;7395370;19;20014;-68
2023/05/23 01:56:15;;;;;;;6.80;5.28;;;;;;;16.05;49.82;100481.69;7396287;19;20027;-68
2023/05/23 01:58:43;;;;;;;8.10;5.35;;;;;;;16.05;49.98;100478.19;7394837;19;20031;-68
2023/05/23 02:01:15;;;;;;;7.03;5.50;;;;;;;16.02;50.04;100487.13;7396118;19;20083;-68
2023/05/23 02:03:44;;;;;;;8.20;5.95;;;;;;;16.00;50.17;100483.72;7394828;19;20019;-68
2023/05/23 02:06:12;;;;;;;7.00;5.50;;;;;;;15.98;50.07;100480.28;7395630;19;20384;-68
2023/05/23 02:08:41;;;;;;;10.48;5.35;;;;;;;15.96;50.26;100479.47;7394305;19;20504;-68
2023/05/23 02:11:09;;;;;;;5.78;5.00;;;;;;;15.96;50.40;100482.13;7395458;19;20015;-68
2023/05/23 02:13:38;;;;;;;7.75;5.35;;;;;;;15.95;50.43;100477.78;7394506;19;20097;-68
2023/05/23 02:16:07;;;;;;;9.50;6.00;;;;;;;15.95;50.23;100483.09;7395234;19;20018;-68
2023/05/23 02:18:39;;;;;;;8.52;5.55;;;;;;;15.95;50.24;100469.84;7395443;19;20522;-68
2023/05/23 02:21:08;;;;;;;6.75;4.95;;;;;;;15.95;50.49;100475.16;7395215;19;20492;-68
2023/05/23 02:23:36;;;;;;;6.57;5.63;;;;;;;15.94;50.51;100479.56;7394524;19;20028;-68
2023/05/23 02:26:05;;;;;;;7.80;5.18;;;;;;;15.93;50.65;100480.50;7395419;19;20023;-68
2023/05/23 02:28:33;;;;;;;9.88;6.13;;;;;;;15.94;50.73;100484.84;7393984;19;20015;-68
2023/05/23 02:31:02;;;;;;;10.75;6.28;;;;;;;15.91;50.89;100489.44;7394960;19;20031;-68
2023/05/23 02:33:30;;;;;;;8.38;5.53;;;;;;;15.87;51.32;100501.09;7393910;19;20015;-68
2023/05/23 02:36:01;;;;;;;7.78;5.32;;;;;;;15.83;52.27;100510.97;7395864;19;20039;-68
2023/05/23 02:38:30;;;;;;;5.90;5.30;;;;;;;15.76;51.95;100507.72;7395357;19;20074;-68
2023/05/23 02:40:59;;;;;;;8.25;5.88;;;;;;;15.76;52.09;100510.38;7394530;19;20026;-68
2023/05/23 02:43:28;;;;;;;10.70;6.45;;;;;;;15.75;52.66;100513.09;7393743;19;20477;-68
2023/05/23 02:45:57;;;;;;;10.73;5.55;;;;;;;15.73;52.95;100496.44;7394870;19;20027;-68
2023/05/23 02:48:25;;;;;;;7.68;6.15;;;;;;;15.73;53.69;100494.66;7393098;19;20021;-68
2023/05/23 02:50:53;;;;;;;6.10;5.13;;;;;;;15.73;53.45;100491.16;7394963;19;20018;-68
2023/05/23 02:53:25;;;;;;;6.78;6.00;;;;;;;15.72;53.96;100492.06;7393520;19;20476;-67
2023/05/23 02:55:53;;;;;;;8.70;6.07;;;;;;;15.70;54.02;100481.56;7394568;19;20359;-67
2023/05/23 02:58:22;;;;;;;9.60;6.22;;;;;;;15.70;54.67;100473.63;7394521;19;20019;-67
2023/05/23 03:00:51;;;;;;;8.13;6.45;;;;;;;15.70;55.51;100452.47;7394121;19;20343;-67
2023/05/23 03:03:20;;;;;;;7.03;6.20;;;;;;;15.71;56.16;100451.56;7393232;19;20507;-67
2023/05/23 03:05:48;;;;;;;8.18;6.72;;;;;;;15.70;56.62;100452.47;7394208;19;20010;-67
2023/05/23 03:08:16;;;;;;;12.27;7.32;;;;;;;15.68;57.21;100459.63;7393278;19;20015;-68
2023/05/23 03:10:48;;;;;;;11.25;6.75;;;;;;;15.66;57.61;100461.50;7394903;19;20105;-67
2023/05/23 03:13:16;;;;;;;7.85;6.20;;;;;;;15.64;57.96;100456.28;7400176;19;20074;-67
2023/05/23 03:15:45;;;;;;;7.22;6.32;;;;;;;15.62;58.18;100452.00;7400841;19;20028;-67
2023/05/23 03:18:14;;;;;;;9.30;6.80;;;;;;;15.60;58.57;100461.78;7401111;19;20010;-67
2023/05/23 03:20:42;;;;;;;7.75;6.50;;;;;;;15.58;58.84;100455.69;7401420;19;20011;-67
2023/05/23 03:23:11;;;;;;;10.65;6.65;;;;;;;15.58;59.37;100447.75;7400376;19;20031;-67
2023/05/23 03:25:39;;;;;;;9.40;6.63;;;;;;;15.57;59.77;100448.69;7401299;19;20039;-67
2023/05/23 03:28:11;;;;;;;8.40;6.60;;;;;;;15.57;60.79;100446.03;7400175;19;20031;-67
2023/05/23 03:30:39;;;;;;;7.57;6.68;;;;;;;15.54;60.33;100443.56;7400787;19;20551;-67
2023/05/23 03:33:08;;;;;;;9.20;6.97;;;;;;;15.53;60.28;100447.13;7399504;19;20022;-67
2023/05/23 03:35:36;;;;;;;7.45;6.60;;;;;;;15.50;60.60;100452.56;7400653;19;20019;-67
2023/05/23 03:38:06;;;;;;;8.48;6.22;;;;;;;15.48;60.66;100442.09;7400553;19;20035;-67
2023/05/23 03:40:34;;;;;;;12.88;7.00;;;;;;;15.45;60.44;100442.22;7400548;19;20074;-68
2023/05/23 03:43:06;;;;;;;8.50;7.60;;;;;;;15.42;60.46;100453.78;7399126;19;20018;-67
2023/05/23 03:45:38;;;;;;;10.52;7.40;;;;;;;15.40;60.69;100463.56;7400133;19;20078;-68
2023/05/23 03:48:06;;;;;;;10.73;7.72;;;;;;;15.37;60.20;100461.06;7400164;19;20077;-67
2023/05/23 03:50:35;;;;;;;12.02;8.43;;;;;;;15.34;60.28;100471.78;7397994;19;20015;-67
2023/05/23 03:53:03;;;;;;;10.20;8.27;;;;;;;15.30;60.41;100486.06;7399494;19;20022;-67
2023/05/23 03:55:33;;;;;;;9.18;7.43;;;;;;;15.23;60.59;100480.22;7400295;19;20086;-67
2023/05/23 03:58:01;;;;;;;10.75;8.18;;;;;;;15.19;60.91;100481.28;7399895;19;20027;-67
2023/05/23 04:00:30;;;;;;;11.32;8.75;;;;;;;15.18;61.28;100491.91;7400087;19;20018;-67
2023/05/23 04:03:01;;;;;;;9.52;8.52;;;;;;;15.13;61.62;100490.31;7399110;19;20042;-67
2023/05/23 04:05:30;;;;;;;12.18;8.43;;;;;;;15.08;61.50;100492.31;7400751;19;20018;-67
2023/05/23 04:08:00;;;;;;;9.65;7.97;;;;;;;15.06;61.96;100502.09;7398743;19;20428;-67
2023/05/23 04:10:28;;;;;;;14.07;8.18;;;;;;;15.01;62.95;100496.16;7399132;19;20026;-67
2023/05/23 04:12:57;;;;;;;8.95;7.40;;;;;;;14.97;63.28;100490.19;7398362;19;20514;-67
2023/05/23 04:15:26;;;;;;;10.23;8.07;;;;;;;14.94;63.89;100502.66;7399532;19;20014;-67
2023/05/23 04:17:55;;;;;;;9.20;8.20;;;;;;;14.89;64.26;100505.50;7398932;19;20041;-67
2023/05/23 04:20:33;;;;;;;12.52;8.07;;;;;;;14.87;65.57;100509.97;7399210;19;20014;-67
2023/05/23 04:23:01;;;;;;;12.18;7.75;;;;;;;14.82;65.03;100501.38;7397981;19;20018;-67
2023/05/23 04:25:30;;;;;;;8.60;7.53;;;;;;;14.76;65.41;100510.44;7399029;19;20015;-67
2023/05/23 04:27:58;;;;;;;10.45;8.38;;;;;;;14.72;65.50;100506.22;7398733;19;20031;-68
2023/05/23 04:30:29;;;;;;;11.13;8.18;;;;;;;14.69;65.81;100490.50;7398907;19;20014;-68
2023/05/23 04:32:58;;;;;;;13.05;8.02;;;;;;;14.66;65.78;100495.94;7397880;19;20516;-68
2023/05/23 04:35:27;;;;;;;12.70;8.18;;;;;;;14.63;66.27;100501.28;7398792;19;20014;-68
2023/05/23 04:37:58;;;;;;;9.65;8.02;;;;;;;14.59;66.24;100499.72;7398299;19;20011;-68
2023/05/23 04:40:27;;;;;;;17.58;12.57;;;;;;;14.57;66.45;100502.41;7398395;19;20018;-68
2023/05/23 04:42:56;;;;;;;24.20;16.88;;;;;;;14.56;66.49;100505.97;7397564;19;20018;-68
2023/05/23 04:45:25;;;;;;;13.18;8.88;;;;;;;14.56;66.79;100508.63;7397970;19;20489;-69
2023/05/23 04:47:55;;;;;;;20.83;16.10;;;;;;;14.56;66.93;100510.38;7397710;19;20037;-68
2023/05/23 04:50:23;;;;;;;11.88;9.75;;;;;;;14.55;66.83;100503.41;7395716;19;20018;-68
2023/05/23 04:52:52;;;;;;;10.57;9.45;;;;;;;14.54;67.05;100507.81;7397175;19;20482;-68
2023/05/23 04:55:23;;;;;;;13.32;9.63;;;;;;;14.56;67.41;100510.38;7398042;19;20040;-68
2023/05/23 04:57:51;;;;;;;13.68;9.77;;;;;;;14.55;67.72;100506.91;7399389;19;20015;-68
2023/05/23 05:00:21;;;;;;;10.50;8.77;;;;;;;14.54;67.66;100506.97;7395847;19;20460;-68
2023/05/23 05:02:49;;;;;;;12.40;8.60;;;;;;;14.54;67.92;100497.25;7396293;19;20020;-68
2023/05/23 05:05:18;;;;;;;10.73;8.98;;;;;;;14.52;67.83;100495.59;7396205;19;20438;-68
2023/05/23 05:07:46;;;;;;;12.23;8.93;;;;;;;14.47;67.96;100499.31;7396610;19;20342;-68
2023/05/23 05:10:16;;;;;;;13.30;8.82;;;;;;;14.51;68.09;100502.69;7395730;19;20518;-68
2023/05/23 05:12:48;;;;;;;9.70;8.65;;;;;;;14.50;67.81;100508.88;7396301;19;20081;-68
2023/05/23 05:15:18;;;;;;;11.38;9.60;;;;;;;14.50;68.04;100507.06;7396559;19;20489;-68
2023/05/23 05:17:47;;;;;;;8.98;7.95;;;;;;;14.49;67.89;100508.03;7396437;19;20116;-68
2023/05/23 05:20:16;;;;;;;10.75;8.27;;;;;;;14.48;68.02;100498.38;7396746;19;20031;-68
2023/05/23 05:22:44;;;;;;;10.70;8.70;;;;;;;14.48;68.08;100495.75;7395952;19;20011;-68
2023/05/23 05:25:13;;;;;;;10.82;8.70;;;;;;;14.49;68.21;100501.88;7397291;19;20022;-68
2023/05/23 05:27:42;;;;;;;9.23;8.00;;;;;;;14.49;68.15;100504.50;7396590;19;20015;-68
2023/05/23 05:30:15;;;;;;;11.05;8.27;;;;;;;14.49;68.43;100502.75;7394548;19;20129;-68
2023/05/23 05:32:45;;;;;;;8.95;8.05;;;;;;;14.48;68.31;100506.31;7396164;19;20489;-68
2023/05/23 05:35:13;;;;;;;13.52;9.68;;;;;;;14.45;68.59;100503.78;7394725;19;20014;-69
2023/05/23 05:37:42;;;;;;;15.75;9.05;;;;;;;14.44;68.58;100509.13;7396579;19;20101;-67
2023/05/23 05:40:11;;;;;;;11.75;9.10;;;;;;;14.42;68.49;100503.91;7396242;19;20025;-67
2023/05/23 05:42:40;;;;;;;13.63;8.95;;;;;;;14.41;68.63;100501.34;7395775;19;20018;-67
2023/05/23 05:45:10;;;;;;;11.52;9.20;;;;;;;14.40;68.54;100503.13;7395951;19;20018;-67
2023/05/23 05:47:41;;;;;;;12.88;8.48;;;;;;;14.40;69.66;100497.84;7395573;19;20516;-67
2023/05/23 05:50:18;;;;;;;10.95;8.93;;;;;;;14.39;68.93;100509.31;7393999;19;20090;-67
2023/05/23 05:52:47;;;;;;;12.70;9.00;;;;;;;14.39;68.82;100497.91;7396053;19;20010;-66
2023/05/23 05:55:15;;;;;;;13.13;8.75;;;;;;;14.41;69.17;100499.56;7396389;19;20011;-66
2023/05/23 05:57:44;;;;;;;9.75;8.30;;;;;;;14.43;68.86;100508.28;7395955;19;20018;-67
2023/05/23 06:00:17;;;;;;;11.13;8.18;;;;;;;14.45;69.17;100505.56;7395975;19;20014;-67
2023/05/23 06:02:50;;;;;;;12.57;9.30;;;;;;;14.46;69.36;100517.84;7395387;19;20380;-68
2023/05/23 06:05:19;;;;;;;10.57;8.95;;;;;;;14.46;69.31;100523.97;7395078;19;20014;-67
2023/05/23 06:07:50;;;;;;;9.63;8.30;;;;;;;14.48;69.46;100518.63;7394695;19;20014;-67
2023/05/23 06:10:19;;;;;;;11.10;8.50;;;;;;;14.50;69.93;100525.56;7394699;19;20018;-67
2023/05/23 06:12:47;;;;;;;9.52;7.82;;;;;;;14.53;69.82;100516.66;7395509;19;20018;-67
2023/05/23 06:15:16;;;;;;;9.73;8.73;;;;;;;14.58;69.79;100519.94;7395760;19;20014;-67
2023/05/23 06:17:44;;;;;;;10.52;8.45;;;;;;;14.62;70.24;100520.69;7396278;19;20018;-67
2023/05/23 06:20:15;;;;;;;12.95;7.93;;;;;;;14.68;70.14;100517.81;7395363;19;20083;-67
2023/05/23 06:22:44;;;;;;;14.48;9.45;;;;;;;14.74;70.01;100519.34;7394719;19;20018;-66
2023/05/23 06:25:12;;;;;;;11.57;8.38;;;;;;;14.83;69.81;100511.88;7394705;19;20082;-66
2023/05/23 06:27:41;;;;;;;12.88;8.57;;;;;;;14.96;69.74;100517.50;7394561;19;20030;-66
2023/05/23 06:30:11;;;;;;;10.43;8.27;;;;;;;15.10;69.40;100510.75;7393332;19;20014;-66
2023/05/23 06:32:39;;;;;;;11.57;10.18;;;;;;;15.23;69.08;100508.44;7394408;19;20031;-66
2023/05/23 06:35:09;;;;;;;17.17;8.90;;;;;;;15.35;69.17;100507.84;7394923;19;20015;-66
2023/05/23 06:37:44;;;;;;;10.32;8.98;;;;;;;15.45;69.07;100506.50;7394347;19;20037;-67
2023/05/23 06:40:13;;;;;;;12.95;8.68;;;;;;;15.56;68.64;100521.88;7394831;19;20023;-65
2023/05/23 06:42:42;;;;;;;9.82;8.82;;;;;;;15.65;68.23;100517.97;7394291;19;20019;-65
2023/05/23 06:45:12;;;;;;;12.35;8.70;;;;;;;15.76;67.94;100520.97;7395763;19;20027;-66
2023/05/23 06:47:42;;;;;;;14.43;9.45;;;;;;;15.90;67.44;100516.84;7401789;19;20026;-66
2023/05/23 06:50:11;;;;;;;14.73;8.43;;;;;;;16.05;66.94;100513.47;7399898;19;20025;-66
2023/05/23 06:52:45;;;;;;;8.88;7.97;;;;;;;16.22;65.42;100523.22;7400748;19;20031;-66
2023/05/23 06:55:17;;;;;;;9.70;6.85;;;;;;;16.36;64.18;100525.16;7401240;19;20014;-66
2023/05/23 06:57:46;;;;;;;9.63;6.78;;;;;;;16.48;64.06;100525.50;7402334;19;20083;-66
2023/05/23 07:00:15;;;;;;;12.00;7.07;;;;;;;16.55;63.23;100522.47;7401888;19;20021;-66
2023/05/23 07:02:44;;;;;;;11.75;7.70;;;;;;;16.61;63.47;100522.16;7400927;19;20018;-65
2023/05/23 07:05:13;;;;;;;10.50;7.78;;;;;;;16.70;63.38;100525.28;7401487;19;20035;-66
2023/05/23 07:07:44;;;;;;;9.85;7.18;;;;;;;16.81;63.42;100527.38;7401310;19;20023;-66
2023/05/23 07:10:13;;;;;;;7.93;7.05;;;;;;;16.89;63.11;100520.75;7399746;19;20018;-66
2023/05/23 07:12:41;;;;;;;9.90;7.70;;;;;;;16.98;62.77;100518.59;7400657;19;20018;-66
2023/05/23 07:15:13;;;;;;;11.57;7.82;;;;;;;17.06;62.61;100521.69;7400711;19;20041;-67
2023/05/23 07:17:42;;;;;;;11.60;7.05;;;;;;;17.18;62.71;100525.50;7401164;19;20090;-67
2023/05/23 07:20:11;;;;;;;10.00;7.70;;;;;;;17.28;62.29;100521.41;7401780;19;20032;-67
2023/05/23 07:22:40;;;;;;;9.93;7.35;;;;;;;17.42;62.69;100516.22;7400508;19;20019;-67
2023/05/23 07:25:12;;;;;;;9.02;7.03;;;;;;;17.58;62.49;100518.91;7400977;19;20022;-67
2023/05/23 07:27:40;;;;;;;12.05;7.63;;;;;;;17.71;61.93;100505.81;7401771;19;20123;-66
2023/05/23 07:30:19;;;;;;;7.65;6.50;;;;;;;17.86;62.16;100511.22;7402187;19;20014;-66
2023/05/23 07:32:47;;;;;;;9.35;6.50;;;;;;;17.95;61.76;100513.38;7400795;19;20014;-68
2023/05/23 07:35:16;;;;;;;9.93;6.82;;;;;;;18.04;61.53;100517.31;7400499;19;20090;-67
2023/05/23 07:37:46;;;;;;;10.48;6.68;;;;;;;18.15;61.58;100514.06;7400077;19;20015;-68
2023/05/23 07:40:17;;;;;;;8.20;6.10;;;;;;;18.27;61.30;100518.66;7400585;19;20029;-68
2023/05/23 07:42:46;;;;;;;8.15;6.22;;;;;;;18.36;60.81;100514.59;7400698;19;20027;-67
2023/05/23 07:45:15;;;;;;;8.60;6.47;;;;;;;18.44;60.77;100520.34;7400111;19;20035;-68
2023/05/23 07:47:44;;;;;;;8.60;6.20;;;;;;;18.45;61.26;100527.38;7400183;19;20022;-68
2023/05/23 07:50:12;;;;;;;7.38;5.75;;;;;;;18.42;60.89;100503.63;7397976;19;20013;-68
2023/05/23 07:52:42;;;;;;;8.10;5.85;;;;;;;18.49;60.53;100510.31;7399911;19;20081;-68
2023/05/23 07:55:11;;;;;;;7.65;5.93;;;;;;;18.55;59.98;100499.31;7400005;19;20014;-66
2023/05/23 07:57:42;;;;;;;7.47;6.15;;;;;;;18.56;59.44;100506.34;7398214;19;20018;-67
2023/05/23 08:00:13;;;;;;;8.75;6.22;;;;;;;18.69;59.67;100511.78;7399661;19;20024;-68
2023/05/23 08:02:42;;;;;;;8.57;6.30;;;;;;;18.82;59.44;100511.06;7399653;19;20362;-67
2023/05/23 08:05:11;;;;;;;9.20;6.95;;;;;;;18.90;59.32;100516.78;7399196;19;20023;-68
2023/05/23 08:07:40;;;;;;;8.35;6.65;;;;;;;19.00;59.50;100509.94;7399356;19;20032;-67
2023/05/23 08:10:10;;;;;;;9.00;6.78;;;;;;;19.11;59.60;100511.09;7397665;19;20015;-67
2023/05/23 08:12:38;;;;;;;8.13;6.47;;;;;;;19.25;59.66;100518.25;7399016;19;20037;-67
2023/05/23 08:15:11;;;;;;;7.32;6.63;;;;;;;19.34;60.17;100513.19;7398578;19;20028;-68
2023/05/23 08:17:39;;;;;;;9.88;7.15;;;;;;;19.40;59.60;100529.72;7399535;19;20018;-67
2023/05/23 08:20:10;;;;;;;8.25;6.85;;;;;;;19.44;59.80;100542.75;7399267;19;20010;-68
2023/05/23 08:22:39;;;;;;;8.40;6.75;;;;;;;19.49;60.03;100537.97;7399786;19;20010;-68
2023/05/23 08:25:08;;;;;;;8.68;7.22;;;;;;;19.56;61.09;100557.06;7399333;19;20018;-68
2023/05/23 08:27:37;;;;;;;7.82;7.03;;;;;;;19.58;61.09;100541.03;7397931;19;20015;-67
2023/05/23 08:30:08;;;;;;;7.88;7.05;;;;;;;19.54;61.74;100540.38;7397739;19;20035;-68
2023/05/23 08:32:39;;;;;;;7.65;6.93;;;;;;;19.54;61.98;100545.69;7397906;19;20022;-68
2023/05/23 08:35:09;;;;;;;9.20;8.30;;;;;;;19.53;62.84;100546.63;7398317;19;20015;-68
2023/05/23 08:37:37;;;;;;;11.27;8.60;;;;;;;19.46;64.11;100545.28;7397742;19;20019;-68
2023/05/23 08:40:13;;;;;;;11.02;7.78;;;;;;;19.47;64.48;100549.69;7397987;19;20031;-68
2023/05/23 08:42:42;;;;;;;10.20;9.05;;;;;;;19.49;64.53;100553.09;7398264;19;20015;-68
2023/05/23 08:45:12;;;;;;;9.45;8.43;;;;;;;19.49;64.90;100558.44;7398071;19;20024;-69
2023/05/23 08:47:45;;;;;;;11.48;9.40;;;;;;;19.54;65.22;100557.19;7397584;19;20015;-68
2023/05/23 08:50:16;;;;;;;10.25;9.07;;;;;;;19.60;65.19;100560.41;7396130;19;20031;-69
2023/05/23 08:52:52;;;;;;;10.23;8.88;;;;;;;19.64;65.06;100554.81;7398027;19;20008;-69
2023/05/23 08:55:21;;;;;;;14.10;11.20;;;;;;;19.68;65.68;100558.97;7396974;19;20011;-69
2023/05/23 08:57:51;;;;;;;11.20;10.10;;;;;;;19.75;65.57;100553.25;7397175;19;20024;-69
2023/05/23 09:00:22;;;;;;;10.68;9.07;;;;;;;19.75;65.41;100563.91;7397098;19;20086;-69
2023/05/23 09:02:53;;;;;;;11.95;10.38;;;;;;;19.75;66.40;100563.91;7396908;19;20024;-69
2023/05/23 09:05:22;;;;;;;11.82;10.32;;;;;;;19.78;65.67;100553.09;7397867;19;20069;-69
2023/05/23 09:07:51;;;;;;;11.00;9.73;;;;;;;19.82;65.28;100558.13;7397027;19;20015;-68
2023/05/23 09:10:21;;;;;;;11.32;10.05;;;;;;;19.82;65.33;100568.78;7396385;19;20014;-69
2023/05/23 09:12:50;;;;;;;12.07;8.50;;;;;;;19.59;64.93;100570.19;7397102;19;20015;-69
2023/05/23 09:15:18;;;;;;;10.13;8.70;;;;;;;19.24;65.49;100593.66;7396911;19;20014;-69
2023/05/23 09:17:47;;;;;;;10.75;8.40;;;;;;;18.93;65.91;100604.31;7397002;19;20027;-69
2023/05/23 09:20:19;;;;;;;9.50;8.00;;;;;;;18.72;66.81;100614.38;7395360;19;20019;-70
2023/05/23 09:22:49;;;;;;;9.27;7.85;;;;;;;18.64;66.94;100608.63;7396595;19;20082;-69
2023/05/23 09:25:18;;;;;;;9.77;7.47;;;;;;;18.54;67.12;100605.69;7396737;19;20011;-68
2023/05/23 09:27:46;;;;;;;9.95;7.70;;;;;;;18.51;67.21;100608.50;7396349;19;20032;-68
2023/05/23 09:30:16;;;;;;;11.35;9.07;;;;;;;18.51;67.33;100608.50;7395624;19;20023;-69
2023/05/23 09:32:44;;;;;;;10.48;9.35;;;;;;;18.40;67.43;100625.06;7396572;19;20078;-69
2023/05/23 09:35:13;;;;;;;9.02;8.13;;;;;;;18.33;67.24;100607.75;7396535;19;20019;-68
2023/05/23 09:37:47;;;;;;;12.85;8.68;;;;;;;18.30;68.03;100627.38;7396152;19;20018;-68
2023/05/23 09:40:17;;;;;;;10.88;9.48;;;;;;;18.30;67.60;100624.72;7397252;19;20039;-70
2023/05/23 09:42:46;;;;;;;12.13;8.35;;;;;;;18.35;67.25;100624.44;7396024;19;20047;-69
2023/05/23 09:45:16;;;;;;;13.65;9.40;;;;;;;18.36;67.50;100607.56;7396343;19;20495;-68
2023/05/23 09:47:52;;;;;;;9.48;8.48;;;;;;;18.33;67.54;100627.19;7396494;19;20031;-69
2023/05/23 09:50:21;;;;;;;15.75;10.10;;;;;;;18.32;67.32;100628.13;7396153;19;20017;-67
2023/05/23 09:52:53;;;;;;;15.38;9.40;;;;;;;18.26;67.31;100639.09;7394975;19;20018;-68
2023/05/23 09:55:21;;;;;;;13.65;9.88;;;;;;;18.26;66.82;100622.31;7395233;19;20010;-70
2023/05/23 09:57:55;;;;;;;11.52;10.23;;;;;;;18.22;67.18;100640.19;7394595;19;20027;-68
2023/05/23 10:00:27;;;;;;;11.55;10.02;;;;;;;18.20;66.77;100656.22;7395587;19;20017;-69
2023/05/23 10:03:12;;;;;;;12.23;10.23;;;;;;;18.18;66.98;100638.66;7395437;19;20347;-68
2023/05/23 10:05:50;;;;;;;13.88;10.13;;;;;;;18.20;66.58;100642.09;7394006;19;20006;-71
2023/05/23 10:08:26;;;;;;;13.60;10.18;;;;;;;18.19;66.86;100637.72;7394961;19;20014;-70
2023/05/23 10:11:26;;;;;;;11.07;9.60;;;;;;;18.20;66.24;100639.44;7394262;19;20018;-71
2023/05/23 10:13:55;;;;;;;16.05;9.98;;;;;;;18.19;66.22;100619.97;7393116;19;20010;-71
2023/05/23 10:16:30;;;;;;;12.30;10.05;;;;;;;18.23;66.32;100631.28;7396394;19;20458;-71
2023/05/23 10:19:18;;;;;;;12.80;9.73;;;;;;;18.24;66.11;100635.66;7395552;19;20014;-71
2023/05/23 10:21:53;;;;;;;10.57;9.20;;;;;;;18.28;66.35;100639.84;7394218;19;20027;-71
2023/05/23 10:24:24;;;;;;;15.93;11.07;;;;;;;18.29;65.91;100643.38;7393545;19;20025;-71
2023/05/23 10:26:53;;;;;;;13.32;11.35;;;;;;;18.32;65.39;100644.06;7394887;19;20023;-71
2023/05/23 10:29:23;;;;;;;11.50;9.35;;;;;;;18.31;65.32;100636.19;7394589;19;20028;-71
2023/05/23 10:31:52;;;;;;;12.38;8.38;;;;;;;18.36;64.89;100644.75;7393031;19;20373;-70
2023/05/23 10:34:29;;;;;;;10.02;8.35;;;;;;;18.37;63.96;100650.00;7392813;19;20352;-70
2023/05/23 10:37:03;;;;;;;12.40;8.65;;;;;;;18.42;64.33;100646.22;7394970;19;20018;-71
2023/05/23 10:39:44;;;;;;;14.45;8.95;;;;;;;18.49;63.90;100631.66;7394594;19;20011;-70
2023/05/23 10:42:18;;;;;;;11.38;9.75;;;;;;;18.53;64.04;100655.28;7394204;19;20014;-70
2023/05/23 10:44:47;;;;;;;14.63;10.32;;;;;;;18.51;63.65;100653.66;7392783;19;20030;-70
2023/05/23 10:47:27;;;;;;;12.02;10.43;;;;;;;18.32;63.37;100651.16;7394118;19;20493;-71
2023/05/23 10:49:57;;;;;;;14.23;11.20;;;;;;;18.21;64.07;100657.94;7394209;19;20019;-70
2023/05/23 10:52:27;;;;;;;15.30;10.80;;;;;;;18.10;64.18;100638.22;7392463;19;20027;-70
2023/05/23 10:55:00;;;;;;;13.00;9.65;;;;;;;18.02;63.94;100658.09;7394480;19;20081;-71
2023/05/23 10:57:29;;;;;;;10.82;9.68;;;;;;;18.01;64.27;100653.72;7394546;19;20035;-70
2023/05/23 10:59:57;;;;;;;11.57;9.13;;;;;;;17.93;64.72;100663.84;7393497;19;20015;-71
2023/05/23 11:02:28;;;;;;;12.80;10.10;;;;;;;17.84;65.15;100662.53;7393016;19;20078;-70
2023/05/23 11:05:20;;;;;;;11.68;9.00;;;;;;;17.75;65.82;100669.22;7393983;19;20015;-70
2023/05/23 11:07:48;;;;;;;14.05;9.30;;;;;;;17.71;65.81;100675.63;7391855;19;20019;-69
2023/05/23 11:10:20;;;;;;;12.13;9.18;;;;;;;17.62;66.39;100676.09;7392946;19;20019;-70
2023/05/23 11:12:49;;;;;;;11.07;9.98;;;;;;;17.51;67.38;100673.16;7393629;19;20154;-70
2023/05/23 11:15:22;;;;;;;12.70;10.98;;;;;;;17.36;68.84;100667.72;7393101;19;20024;-71
2023/05/23 11:17:54;;;;;;;11.00;9.90;;;;;;;17.22;68.39;100670.19;7392315;19;20485;-71
2023/05/23 11:20:26;;;;;;;13.00;10.20;;;;;;;17.13;69.04;100681.28;7392902;19;20014;-71
2023/05/23 11:23:08;;;;;;;13.35;10.10;;;;;;;17.09;68.82;100670.81;7391627;19;20018;-71
2023/05/23 11:25:49;;;;;;;11.13;9.98;;;;;;;17.10;68.78;100669.88;7394430;19;20045;-71
2023/05/23 11:28:18;;;;;;;10.02;9.00;;;;;;;17.12;67.83;100684.88;7394182;19;20091;-71
2023/05/23 11:30:51;;;;;;;11.73;9.30;;;;;;;17.08;68.01;100677.03;7394110;19;20481;-71
2023/05/23 11:33:20;;;;;;;13.32;9.55;;;;;;;17.05;67.71;100679.88;7398666;19;20082;-70